createdAt,value
2018-04-24T00:01:09.613Z,98677
2018-04-24T00:03:41.955Z,98674
2018-04-24T00:06:14.893Z,98672
2018-04-24T00:08:47.174Z,98665
2018-04-24T00:11:19.353Z,98667
2018-04-24T00:13:51.574Z,98669
2018-04-24T00:16:23.733Z,98658
2018-04-24T00:18:55.993Z,98665
2018-04-24T00:21:28.194Z,98665
2018-04-24T00:24:00.373Z,98669
2018-04-24T00:26:32.533Z,98672
2018-04-24T00:29:05.034Z,98674
2018-04-24T00:31:37.273Z,98678
2018-04-24T00:34:09.473Z,98684
2018-04-24T00:36:42.153Z,98679
2018-04-24T00:39:14.493Z,98685
2018-04-24T00:41:46.697Z,98677
2018-04-24T00:44:18.915Z,98679
2018-04-24T00:46:51.113Z,98675
2018-04-24T00:49:23.493Z,98670
2018-04-24T00:51:55.673Z,98681
2018-04-24T00:54:27.919Z,98672
2018-04-24T00:57:00.133Z,98681
2018-04-24T00:59:32.196Z,98684
2018-04-24T01:02:04.595Z,98684
2018-04-24T01:04:36.815Z,98682
2018-04-24T01:07:09.835Z,98694
2018-04-24T01:09:41.973Z,98693
2018-04-24T01:12:14.233Z,98693
2018-04-24T01:14:46.915Z,98703
2018-04-24T01:17:19.034Z,98704
2018-04-24T01:19:51.675Z,98706
2018-04-24T01:22:23.894Z,98708
2018-04-24T01:24:56.554Z,98717
2018-04-24T01:27:28.775Z,98718
2018-04-24T01:30:00.936Z,98716
2018-04-24T01:32:33.597Z,98726
2018-04-24T01:35:05.816Z,98716
2018-04-24T01:37:38.075Z,98712
2018-04-24T01:40:10.975Z,98716
2018-04-24T01:42:43.195Z,98717
2018-04-24T01:45:10.315Z,98718
2018-04-24T01:47:42.635Z,98712
2018-04-24T01:50:15.676Z,98715
2018-04-24T01:52:58.221Z,98718
2018-04-24T01:55:37.356Z,98718
2018-04-24T01:58:21.226Z,98717
2018-04-24T02:01:04.431Z,98724
2018-04-24T02:03:48.464Z,98724
2018-04-24T02:06:32.303Z,98729
2018-04-24T02:09:16.144Z,98721
2018-04-24T02:11:57.745Z,98722
2018-04-24T02:14:31.063Z,98723
2018-04-24T02:17:08.526Z,98726
2018-04-24T02:19:45.435Z,98727
2018-04-24T02:22:23.032Z,98730
2018-04-24T02:25:00.956Z,98722
2018-04-24T02:27:39.942Z,98730
2018-04-24T02:30:12.703Z,98727
2018-04-24T02:32:52.290Z,98724
2018-04-24T02:35:27.490Z,98736
2018-04-24T02:38:05.760Z,98728
2018-04-24T02:40:43.897Z,98737
2018-04-24T02:43:22.866Z,98742
2018-04-24T02:46:00.514Z,98737
2018-04-24T02:48:35.255Z,98741
2018-04-24T02:51:12.319Z,98746
2018-04-24T02:53:50.972Z,98743
2018-04-24T02:56:29.625Z,98751
2018-04-24T02:59:07.921Z,98749
2018-04-24T03:01:40.674Z,98753
2018-04-24T03:04:13.535Z,98745
2018-04-24T03:06:45.755Z,98754
2018-04-24T03:09:17.893Z,98761
2018-04-24T03:11:50.344Z,98763
2018-04-24T03:14:23.310Z,98758
2018-04-24T03:16:55.704Z,98760
2018-04-24T03:19:27.946Z,98763
2018-04-24T03:22:00.737Z,98763
2018-04-24T03:24:32.945Z,98763
2018-04-24T03:27:05.885Z,98767
2018-04-24T03:29:38.126Z,98759
2018-04-24T03:32:10.446Z,98759
2018-04-24T03:34:42.786Z,98763
2018-04-24T03:37:15.786Z,98771
2018-04-24T03:39:47.968Z,98773
2018-04-24T03:42:20.206Z,98775
2018-04-24T03:44:52.366Z,98770
2018-04-24T03:47:24.506Z,98766
2018-04-24T03:49:56.686Z,98767
2018-04-24T03:52:28.966Z,98762
2018-04-24T03:55:01.227Z,98769
2018-04-24T03:57:33.486Z,98774
2018-04-24T04:00:05.786Z,98773
2018-04-24T04:02:37.966Z,98765
2018-04-24T04:05:10.546Z,98767
2018-04-24T04:07:37.779Z,98771
2018-04-24T04:10:10.009Z,98775
2018-04-24T04:12:42.926Z,98769
2018-04-24T04:15:15.106Z,98769
2018-04-24T04:18:05.447Z,98771
2018-04-24T04:21:02.747Z,98784
2018-04-24T04:23:53.208Z,98777
2018-04-24T04:26:25.434Z,98778
2018-04-24T04:28:57.744Z,98776
2018-04-24T04:31:29.987Z,98776
2018-04-24T04:34:02.209Z,98778
2018-04-24T04:36:34.428Z,98780
2018-04-24T04:39:06.659Z,98787
2018-04-24T04:41:38.848Z,98793
2018-04-24T04:44:11.130Z,98792
2018-04-24T04:46:43.348Z,98795
2018-04-24T04:49:15.523Z,98801
2018-04-24T04:51:47.768Z,98802
2018-04-24T04:54:20.018Z,98800
2018-04-24T04:56:53.208Z,98807
2018-04-24T04:59:25.449Z,98807
2018-04-24T05:01:57.777Z,98810
2018-04-24T05:04:25.769Z,98803
2018-04-24T05:06:58.129Z,98801
2018-04-24T05:09:30.371Z,98805
2018-04-24T05:12:02.646Z,98807
2018-04-24T05:14:35.028Z,98807
2018-04-24T05:17:07.211Z,98816
2018-04-24T05:19:39.388Z,98812
2018-04-24T05:22:11.548Z,98811
2018-04-24T05:24:43.829Z,98816
2018-04-24T05:27:16.312Z,98819
2018-04-24T05:29:48.605Z,98823
2018-04-24T05:32:20.749Z,98825
2018-04-24T05:34:52.948Z,98826
2018-04-24T05:37:25.129Z,98824
2018-04-24T05:39:57.411Z,98826
2018-04-24T05:42:29.648Z,98826
2018-04-24T05:45:01.940Z,98830
2018-04-24T05:47:34.868Z,98836
2018-04-24T05:50:07.087Z,98827
2018-04-24T05:52:39.288Z,98836
2018-04-24T05:55:11.507Z,98833
2018-04-24T05:57:43.717Z,98836
2018-04-24T06:00:16.407Z,98837
2018-04-24T06:02:48.593Z,98835
2018-04-24T06:05:21.049Z,98837
2018-04-24T06:07:53.356Z,98839
2018-04-24T06:10:26.820Z,98853
2018-04-24T06:12:58.976Z,98853
2018-04-24T06:15:31.176Z,98844
2018-04-24T06:18:03.403Z,98855
2018-04-24T06:20:35.675Z,98853
2018-04-24T06:23:07.896Z,98853
2018-04-24T06:25:40.116Z,98864
2018-04-24T06:28:12.316Z,98869
2018-04-24T06:30:44.797Z,98871
2018-04-24T06:33:17.036Z,98869
2018-04-24T06:35:49.560Z,98880
2018-04-24T06:38:21.657Z,98879
2018-04-24T06:40:53.899Z,98876
2018-04-24T06:43:26.786Z,98883
2018-04-24T06:45:59.817Z,98886
2018-04-24T06:48:32.017Z,98893
2018-04-24T06:51:04.256Z,98888
2018-04-24T06:53:36.955Z,98885
2018-04-24T06:56:09.196Z,98891
2018-04-24T06:58:41.431Z,98890
2018-04-24T07:01:13.665Z,98889
2018-04-24T07:03:45.905Z,98881
2018-04-24T07:06:18.169Z,98885
2018-04-24T07:08:50.300Z,98891
2018-04-24T07:11:22.585Z,98893
2018-04-24T07:13:55.545Z,98892
2018-04-24T07:16:27.705Z,98887
2018-04-24T07:18:59.888Z,98891
2018-04-24T07:21:32.105Z,98887
2018-04-24T07:24:04.345Z,98885
2018-04-24T07:26:36.605Z,98889
2018-04-24T07:29:08.865Z,98889
2018-04-24T07:31:41.045Z,98895
2018-04-24T07:34:13.285Z,98893
2018-04-24T07:36:45.486Z,98894
2018-04-24T07:39:17.709Z,98888
2018-04-24T07:41:49.868Z,98889
2018-04-24T07:44:22.445Z,98884
2018-04-24T07:46:55.039Z,98877
2018-04-24T07:49:27.586Z,98879
2018-04-24T07:51:59.805Z,98881
2018-04-24T07:54:32.686Z,98875
2018-04-24T07:57:04.905Z,98870
2018-04-24T07:59:37.085Z,98868
2018-04-24T08:02:04.446Z,98877
2018-04-24T08:04:36.665Z,98873
2018-04-24T08:07:08.928Z,98873
2018-04-24T08:09:41.864Z,98876
2018-04-24T08:12:14.085Z,98878
2018-04-24T08:14:46.326Z,98877
2018-04-24T08:17:18.867Z,98876
2018-04-24T08:19:51.086Z,98883
2018-04-24T08:22:23.265Z,98884
2018-04-24T08:24:55.526Z,98881
2018-04-24T08:27:27.705Z,98877
2018-04-24T08:29:59.945Z,98882
2018-04-24T08:32:32.105Z,98890
2018-04-24T08:35:04.407Z,98888
2018-04-24T08:37:36.604Z,98893
2018-04-24T08:40:08.904Z,98901
2018-04-24T08:42:41.085Z,98897
2018-04-24T08:45:13.625Z,98897
2018-04-24T08:47:45.925Z,98894
2018-04-24T08:50:18.125Z,98899
2018-04-24T08:52:50.226Z,98899
2018-04-24T08:55:22.526Z,98899
2018-04-24T08:57:55.425Z,98902
2018-04-24T09:00:27.625Z,98899
2018-04-24T09:02:59.741Z,98899
2018-04-24T09:05:31.985Z,98897
2018-04-24T09:08:04.192Z,98886
2018-04-24T09:10:36.428Z,98893
2018-04-24T09:13:08.665Z,98884
2018-04-24T09:15:40.908Z,98886
2018-04-24T09:18:13.144Z,98887
2018-04-24T09:20:45.331Z,98887
2018-04-24T09:23:17.565Z,98891
2018-04-24T09:25:49.710Z,98890
2018-04-24T09:28:21.863Z,98886
2018-04-24T09:30:54.064Z,98877
2018-04-24T09:33:26.293Z,98873
2018-04-24T09:35:58.443Z,98867
2018-04-24T09:38:30.782Z,98865
2018-04-24T09:41:03.083Z,98862
2018-04-24T09:43:35.224Z,98862
2018-04-24T09:46:07.424Z,98858
2018-04-24T09:48:39.865Z,98858
2018-04-24T09:51:12.221Z,98866
2018-04-24T09:53:44.803Z,98861
2018-04-24T09:56:17.022Z,98860
2018-04-24T09:58:49.535Z,98844
2018-04-24T10:01:21.932Z,98839
2018-04-24T10:03:54.131Z,98835
2018-04-24T10:06:26.376Z,98829
2018-04-24T10:08:58.590Z,98827
2018-04-24T10:11:30.791Z,98824
2018-04-24T10:14:03.112Z,98826
2018-04-24T10:16:36.132Z,98829
2018-04-24T10:19:08.712Z,98829
2018-04-24T10:21:40.893Z,98822
2018-04-24T10:24:13.193Z,98825
2018-04-24T10:26:45.332Z,98818
2018-04-24T10:29:17.464Z,98810
2018-04-24T10:31:49.774Z,98815
2018-04-24T10:34:21.972Z,98812
2018-04-24T10:36:54.212Z,98804
2018-04-24T10:39:26.294Z,98806
2018-04-24T10:41:58.572Z,98799
2018-04-24T10:44:30.732Z,98799
2018-04-24T10:47:02.995Z,98797
2018-04-24T10:49:35.444Z,98793
2018-04-24T10:52:07.572Z,98794
2018-04-24T10:54:39.874Z,98793
2018-04-24T10:57:12.013Z,98776
2018-04-24T10:59:44.134Z,98782
2018-04-24T11:02:16.233Z,98784
2018-04-24T11:04:48.692Z,98787
2018-04-24T11:07:20.912Z,98779
2018-04-24T11:09:53.112Z,98774
2018-04-24T11:12:25.333Z,98780
2018-04-24T11:14:58.332Z,98781
2018-04-24T11:17:30.594Z,98777
2018-04-24T11:20:02.894Z,98773
2018-04-24T11:22:35.883Z,98762
2018-04-24T11:25:08.171Z,98762
2018-04-24T11:27:41.293Z,98756
2018-04-24T11:30:13.551Z,98751
2018-04-24T11:32:45.774Z,98756
2018-04-24T11:35:17.954Z,98750
2018-04-24T11:37:50.194Z,98746
2018-04-24T11:40:22.795Z,98750
2018-04-24T11:42:54.994Z,98751
2018-04-24T11:45:27.434Z,98739
2018-04-24T11:48:00.473Z,98745
2018-04-24T11:50:32.733Z,98734
2018-04-24T11:53:04.747Z,98733
2018-04-24T11:55:37.054Z,98732
2018-04-24T11:58:09.218Z,98737
2018-04-24T12:00:41.454Z,98739
2018-04-24T12:03:13.510Z,98727
2018-04-24T12:05:45.813Z,98721
2018-04-24T12:08:18.093Z,98718
2018-04-24T12:10:50.494Z,98715
2018-04-24T12:13:22.673Z,98711
2018-04-24T12:15:54.873Z,98715
2018-04-24T12:18:27.413Z,98704
2018-04-24T12:20:59.653Z,98707
2018-04-24T12:23:32.532Z,98704
2018-04-24T12:26:04.733Z,98701
2018-04-24T12:28:36.952Z,98697
2018-04-24T12:31:09.892Z,98690
2018-04-24T12:33:42.133Z,98690
2018-04-24T12:36:14.355Z,98685
2018-04-24T12:38:47.434Z,98674
2018-04-24T12:41:19.615Z,98667
2018-04-24T12:43:51.874Z,98667
2018-04-24T12:46:24.174Z,98664
2018-04-24T12:48:56.494Z,98668
2018-04-24T12:51:28.734Z,98656
2018-04-24T12:54:01.055Z,98658
2018-04-24T12:56:33.274Z,98648
2018-04-24T12:59:13.423Z,98649
2018-04-24T13:01:55.836Z,98638
2018-04-24T13:04:38.820Z,98647
2018-04-24T13:07:22.595Z,98633
2018-04-24T13:09:54.956Z,98639
2018-04-24T13:12:27.915Z,98634
2018-04-24T13:15:00.166Z,98629
2018-04-24T13:17:32.407Z,98628
2018-04-24T13:20:04.987Z,98624
2018-04-24T13:22:37.207Z,98622
2018-04-24T13:25:10.531Z,98615
2018-04-24T13:27:42.772Z,98610
2018-04-24T13:30:15.247Z,98602
2018-04-24T13:32:48.126Z,98600
2018-04-24T13:35:21.679Z,98597
2018-04-24T13:37:54.658Z,98588
2018-04-24T13:40:28.453Z,98587
2018-04-24T13:43:00.699Z,98588
2018-04-24T13:45:32.938Z,98583
2018-04-24T13:48:05.129Z,98575
2018-04-24T13:50:38.275Z,98574
2018-04-24T13:53:10.508Z,98570
2018-04-24T13:55:37.869Z,98565
2018-04-24T13:58:10.108Z,98570
2018-04-24T14:00:43.068Z,98557
2018-04-24T14:03:15.308Z,98552
2018-04-24T14:05:48.267Z,98550
2018-04-24T14:08:20.888Z,98546
2018-04-24T14:10:53.129Z,98537
2018-04-24T14:13:25.407Z,98539
2018-04-24T14:15:57.607Z,98544
2018-04-24T14:18:30.629Z,98540
2018-04-24T14:21:02.948Z,98541
2018-04-24T14:23:35.289Z,98538
2018-04-24T14:26:07.748Z,98537
2018-04-24T14:28:40.765Z,98529
2018-04-24T14:31:13.028Z,98534
2018-04-24T14:33:46.093Z,98521
2018-04-24T14:36:19.464Z,98522
2018-04-24T14:38:51.748Z,98523
2018-04-24T14:41:24.645Z,98520
2018-04-24T14:44:00.256Z,98512
2018-04-24T14:46:32.589Z,98512
2018-04-24T14:49:04.989Z,98511
2018-04-24T14:51:37.233Z,98510
2018-04-24T14:54:09.456Z,98501
2018-04-24T14:56:41.800Z,98506
2018-04-24T14:59:13.962Z,98505
2018-04-24T15:01:46.127Z,98500
2018-04-24T15:04:19.708Z,98495
2018-04-24T15:06:54.770Z,98509
2018-04-24T15:09:27.847Z,98506
2018-04-24T15:12:00.686Z,98503
2018-04-24T15:14:32.952Z,98498
2018-04-24T15:17:07.107Z,98496
2018-04-24T15:19:40.464Z,98494
2018-04-24T15:22:12.885Z,98503
2018-04-24T15:24:45.045Z,98504
2018-04-24T15:27:17.245Z,98494
2018-04-24T15:29:50.685Z,98491
2018-04-24T15:32:22.925Z,98489
2018-04-24T15:34:55.997Z,98489
2018-04-24T15:37:28.344Z,98485
2018-04-24T15:40:01.851Z,98485
2018-04-24T15:42:33.985Z,98488
2018-04-24T15:45:06.247Z,98481
2018-04-24T15:47:38.379Z,98481
2018-04-24T15:50:11.325Z,98482
2018-04-24T15:52:43.404Z,98488
2018-04-24T15:55:15.644Z,98488
2018-04-24T15:57:48.844Z,98481
2018-04-24T16:00:21.063Z,98478
2018-04-24T16:02:54.036Z,98480
2018-04-24T16:05:26.987Z,98483
2018-04-24T16:07:59.203Z,98478
2018-04-24T16:10:32.164Z,98478
2018-04-24T16:14:42.424Z,98473
2018-04-24T16:17:09.303Z,98476
2018-04-24T16:19:37.282Z,98478
2018-04-24T16:22:04.220Z,98468
2018-04-24T16:24:31.481Z,98476
2018-04-24T16:26:58.440Z,98465
2018-04-24T16:29:25.381Z,98471
2018-04-24T16:31:52.381Z,98464
2018-04-24T16:34:19.460Z,98470
2018-04-24T16:36:46.540Z,98471
2018-04-24T16:39:14.381Z,98474
2018-04-24T16:41:41.383Z,98469
2018-04-24T16:44:08.459Z,98468
2018-04-24T16:46:35.617Z,98469
2018-04-24T16:49:02.606Z,98473
2018-04-24T16:51:31.381Z,98470
2018-04-24T16:53:59.120Z,98459
2018-04-24T16:56:26.161Z,98453
2018-04-24T16:58:53.221Z,98455
2018-04-24T17:01:20.505Z,98457
2018-04-24T17:03:48.261Z,98453
2018-04-24T17:06:16.066Z,98451
2018-04-24T17:08:43.182Z,98449
2018-04-24T17:11:10.242Z,98454
2018-04-24T17:13:37.339Z,98445
2018-04-24T17:16:04.440Z,98444
2018-04-24T17:18:31.480Z,98449
2018-04-24T17:20:58.459Z,98453
2018-04-24T17:23:25.483Z,98451
2018-04-24T17:25:52.520Z,98452
2018-04-24T17:28:19.559Z,98452
2018-04-24T17:30:46.817Z,98449
2018-04-24T17:33:14.173Z,98441
2018-04-24T17:35:41.334Z,98442
2018-04-24T17:38:08.411Z,98445
2018-04-24T17:40:35.552Z,98441
2018-04-24T17:43:02.652Z,98447
2018-04-24T17:45:30.474Z,98443
2018-04-24T17:47:57.452Z,98448
2018-04-24T17:50:25.313Z,98444
2018-04-24T17:52:53.132Z,98455
2018-04-24T17:55:20.173Z,98441
2018-04-24T17:57:47.273Z,98457
2018-04-24T18:00:14.194Z,98460
2018-04-24T18:02:41.393Z,98458
2018-04-24T18:05:08.861Z,98457
2018-04-24T18:07:35.995Z,98447
2018-04-24T18:10:04.027Z,98453
2018-04-24T18:12:31.107Z,98453
2018-04-24T18:14:58.886Z,98460
2018-04-24T18:17:26.247Z,98462
2018-04-24T18:19:53.287Z,98463
2018-04-24T18:22:20.668Z,98471
2018-04-24T18:24:47.888Z,98461
2018-04-24T18:27:15.767Z,98461
2018-04-24T18:29:42.919Z,98474
2018-04-24T18:32:09.947Z,98458
2018-04-24T18:34:37.939Z,98462
2018-04-24T18:37:05.025Z,98449
2018-04-24T18:39:41.467Z,98451
2018-04-24T18:42:19.831Z,98460
2018-04-24T18:44:57.275Z,98458
2018-04-24T18:47:33.110Z,98460
2018-04-24T18:50:11.191Z,98454
2018-04-24T18:52:38.610Z,98464
2018-04-24T18:55:15.458Z,98464
2018-04-24T18:57:48.601Z,98467
2018-04-24T19:00:25.589Z,98463
2018-04-24T19:03:01.115Z,98458
2018-04-24T19:05:29.052Z,98462
2018-04-24T19:08:03.188Z,98467
2018-04-24T19:10:40.645Z,98470
2018-04-24T19:13:15.872Z,98472
2018-04-24T19:15:52.302Z,98475
2018-04-24T19:18:25.264Z,98471
2018-04-24T19:20:52.303Z,98476
2018-04-24T19:23:19.283Z,98485
2018-04-24T19:25:47.698Z,98470
2018-04-24T19:28:15.127Z,98474
2018-04-24T19:30:42.216Z,98474
2018-04-24T19:33:09.675Z,98477
2018-04-24T19:35:36.717Z,98470
2018-04-24T19:38:03.937Z,98482
2018-04-24T19:40:37.608Z,98472
2018-04-24T19:43:04.999Z,98477
2018-04-24T19:45:32.802Z,98472
2018-04-24T19:47:59.917Z,98473
2018-04-24T19:50:27.297Z,98477
2018-04-24T19:52:54.594Z,98475
2018-04-24T19:55:25.737Z,98473
2018-04-24T19:57:52.903Z,98477
2018-04-24T20:00:20.716Z,98477
2018-04-24T20:02:47.796Z,98467
2018-04-24T20:05:14.736Z,98468
2018-04-24T20:07:41.756Z,98472
2018-04-24T20:10:08.896Z,98471
2018-04-24T20:12:35.883Z,98468
2018-04-24T20:15:02.965Z,98469
2018-04-24T20:17:29.985Z,98474
2018-04-24T20:19:56.982Z,98476
2018-04-24T20:22:23.982Z,98466
2018-04-24T20:24:51.883Z,98460
2018-04-24T20:27:18.922Z,98467
2018-04-24T20:29:45.922Z,98462
2018-04-24T20:32:12.944Z,98463
2018-04-24T20:34:40.042Z,98455
2018-04-24T20:37:07.802Z,98462
2018-04-24T20:39:35.621Z,98463
2018-04-24T20:42:02.885Z,98459
2018-04-24T20:44:29.882Z,98459
2018-04-24T20:46:56.842Z,98455
2018-04-24T20:49:23.782Z,98457
2018-04-24T20:51:50.941Z,98462
2018-04-24T20:54:18.281Z,98463
2018-04-24T20:56:45.301Z,98463
2018-04-24T20:59:13.142Z,98465
2018-04-24T21:01:40.205Z,98460
2018-04-24T21:04:07.242Z,98468
2018-04-24T21:06:34.210Z,98469
2018-04-24T21:09:01.782Z,98467
2018-04-24T21:11:29.563Z,98473
2018-04-24T21:13:57.041Z,98473
2018-04-24T21:16:24.022Z,98467
2018-04-24T21:18:51.061Z,98469
2018-04-24T21:21:18.102Z,98469
2018-04-24T21:23:45.621Z,98466
2018-04-24T21:26:13.114Z,98470
2018-04-24T21:28:40.202Z,98472
2018-04-24T21:31:07.301Z,98459
2018-04-24T21:33:34.701Z,98458
2018-04-24T21:36:02.542Z,98457
2018-04-24T21:38:29.642Z,98463
2018-04-24T21:40:56.801Z,98466
2018-04-24T21:43:23.803Z,98460
2018-04-24T21:45:50.842Z,98460
2018-04-24T21:48:17.863Z,98455
2018-04-24T21:50:44.882Z,98458
2018-04-24T21:53:11.922Z,98462
2018-04-24T21:55:38.902Z,98448
2018-04-24T21:58:05.943Z,98457
2018-04-24T22:00:33.362Z,98451
2018-04-24T22:03:00.362Z,98450
2018-04-24T22:05:27.403Z,98451
2018-04-24T22:07:54.763Z,98452
2018-04-24T22:10:21.843Z,98449
2018-04-24T22:12:48.925Z,98439
2018-04-24T22:15:15.922Z,98449
2018-04-24T22:17:42.922Z,98440
2018-04-24T22:20:09.922Z,98451
2018-04-24T22:22:37.682Z,98448
2018-04-24T22:25:04.802Z,98443
2018-04-24T22:27:32.262Z,98438
2018-04-24T22:29:59.241Z,98446
2018-04-24T22:32:26.302Z,98434
2018-04-24T22:34:53.322Z,98432
2018-04-24T22:37:20.303Z,98436
2018-04-24T22:39:47.291Z,98426
2018-04-24T22:42:14.382Z,98431
2018-04-24T22:44:42.082Z,98427
2018-04-24T22:47:09.505Z,98424
2018-04-24T22:49:36.542Z,98430
2018-04-24T22:52:03.542Z,98427
2018-04-24T22:54:30.922Z,98430
2018-04-24T22:56:57.911Z,98429
2018-04-24T22:59:25.025Z,98430
2018-04-24T23:01:52.123Z,98425
2018-04-24T23:04:19.216Z,98427
2018-04-24T23:06:46.271Z,98430
2018-04-24T23:09:13.332Z,98422
2018-04-24T23:11:58.572Z,98431
2018-04-24T23:14:43.612Z,98425
2018-04-24T23:17:28.792Z,98421
2018-04-24T23:20:13.971Z,98424
2018-04-24T23:22:41.099Z,98418
2018-04-24T23:25:08.232Z,98422
2018-04-24T23:27:35.390Z,98419
2018-04-24T23:30:02.631Z,98409
2018-04-24T23:32:29.732Z,98412
2018-04-24T23:34:56.791Z,98409
2018-04-24T23:37:23.832Z,98417
2018-04-24T23:39:51.651Z,98410
2018-04-24T23:42:18.831Z,98407
2018-04-24T23:44:46.251Z,98415
2018-04-24T23:47:13.311Z,98415
2018-04-24T23:49:40.454Z,98409
2018-04-24T23:52:07.632Z,98418
2018-04-24T23:54:34.693Z,98411
2018-04-24T23:57:01.853Z,98410
2018-04-24T23:59:28.973Z,98407
